Saturday, August 18, 2018, 8:28 PM EDT
Back to Local

KMUI, Muir Army Air Field / Indiantown

Location: Jonestown, PA, United States Lat: 40.433
Local Time: 8:28 PM EDT ( 0:28 GMT) Lon: -76.567
Time Zone: US/Eastern Elev: 488 ft

Show me the last for .
Show Decoded

2018-08-18 19:56 METAR KMUI 182356Z AUTO 00000KT 10SM BKN047 23/23 A2985 RMK AO2 SLP108 60097
                 T02300225 10281 20222 52019 $ =
2018-08-18 18:56 METAR KMUI 182256Z AUTO 00000KT 10SM CLR 23/23 A2983 RMK AO2 RAE2156DZB07E21
                 SLP101 P0000 T02320227 $ =
2018-08-18 18:21 METAR KMUI 182221Z AUTO 00000KT 10SM M 23/22 A2983 RMK AO2 RAE2156DZB07E21
                 PRESFR SLP101 CHINO RWY07 $ =
2018-08-18 18:07 METAR KMUI 182207Z AUTO 13003KT 10SM +DZ M M A2985 RMK AO2 RAE2156DZB07 PRESRR
                 SLPNO ALSTG ESTMD CHINO RWY07 $ =
2018-08-18 17:57 METAR KMUI 182157Z AUTO 00000KT 10SM SCT012 22/22 A2983 RMK AO2 RAE56 SLP101 $ =
2018-08-18 17:56 METAR KMUI 182156Z AUTO 36003KT 9SM -RA BKN011 22/22 A2983 RMK AO2 DZB16E18RAB18
                 TSB35E50 SLP101 P0076 T02230218 $ =
2018-08-18 17:50 METAR KMUI 182150Z AUTO 36005KT 5SM -RA BR BKN011 22/22 A2983 RMK AO2
                 DZB16E18RAB18 TSB35E50 BKN V OVC SLP101 $ =
2018-08-18 17:49 METAR KMUI 182149Z AUTO 36005KT 4SM -TSRA BR BKN011 22/22 A2983 RMK AO2
                 DZB16E18RAB18 TSB35 BKN V OVC SLP101 $ =
2018-08-18 17:47 METAR KMUI 182147Z AUTO 01006KT 2 1/2SM +TSRA BR BKN011 22/22 A2983 RMK AO2 VIS
                 1 1/8V2 1/2 DZB16E18RAB18 TSB35 BKN V OVC SLP101 $ =
2018-08-18 17:45 METAR KMUI 182145Z AUTO 02007KT 1 1/4SM +TSRA BR OVC011 22/22 A2983 RMK AO2
                 DZB16E18RAB18 TSB35 SLP101 $ =
2018-08-18 17:43 METAR KMUI 182143Z AUTO 01006KT 1 1/8SM +TSRA BR OVC011 22/22 A2983 RMK AO2
                 DZB16E18RAB18 TSB35 SLP101 $ =
2018-08-18 17:41 METAR KMUI 182141Z AUTO 36006KT 1 1/4SM +TSRA BR BKN010 OVC025 22/22 A2983 RMK
                 AO2 VIS 5/8V1 1/4 DZB16E18RAB18 TSB35 CIG 008V010 SLP101 $ =
2018-08-18 17:37 METAR KMUI 182137Z AUTO 34006KT 1 1/8SM +TSRA BR BKN010 OVC025 22/22 A2983 RMK
                 AO2 VIS 1/2V1 1/8 DZB16E18RAB18 TSB35 CIG 006V026 SLP101 $ =
2018-08-18 17:35 METAR KMUI 182135Z AUTO 32006KT 1SM +TSRA BR BKN010 OVC025 22/22 A2983 RMK AO2
                 VIS 1/2V2 1/4 DZB16E18RAB18 TSB35 CIG 006V026 SLP101 RVRNO $ =
2018-08-18 17:33 METAR KMUI 182133Z AUTO 32007KT 3/4SM +RA BR BKN008 BKN026 22/22 A2983 RMK AO2
                 VIS 1/2V4 DZB16E18RAB18 CIG 006V026 SLP101 RVRNO $ =
2018-08-18 17:29 METAR KMUI 182129Z AUTO 33007KT 5/8SM +RA BR BKN006 BKN026 23/22 A2983 RMK AO2
                 VIS 5/8V8 DZB16E18RAB18 CIG 006V026 BKN006 V FEW SLP101 RVRNO $ =
2018-08-18 17:27 METAR KMUI 182127Z AUTO 34010G16KT 1 3/8SM +RA BR SCT006 BKN026 23/22 A2982 RMK
                 AO2 VIS 1 3/8V9 DZB16E18RAB18 CIG 026V037 BKN V SCT SLP098 $ =
2018-08-18 17:19 METAR KMUI 182119Z AUTO 34013G16KT 9SM +RA FEW006 BKN026 26/22 A2982 RMK AO2
                 DZB16E18RAB18 CIG 026V037 BKN V SCT SLP097 $ =
2018-08-18 17:16 METAR KMUI 182116Z AUTO 34008KT 10SM -DZ SCT026 SCT037 27/22 A2981 RMK AO2 DZB16
                 SLP094 $ =
2018-08-18 16:56 METAR KMUI 182056Z AUTO 22007KT 10SM FEW026 28/22 A2979 RMK AO2 SLP087 60021
                 T02770224 57016 $ =
2018-08-18 15:56 METAR KMUI 181956Z AUTO 18003KT 10SM FEW180 27/23 A2981 RMK AO2
                 RAE1856DZB1856E1857 SLP094 P0000 T02680230 $ =
2018-08-18 14:57 METAR KMUI 181857Z AUTO 00000KT 10SM SCT017 SCT200 24/22 A2983 RMK AO2
                 RAE56DZB56E57 SLP101 $ =
2018-08-18 14:56 METAR KMUI 181856Z AUTO 00000KT 9SM -RA SCT017 SCT200 23/22 A2983 RMK AO2 RAB16
                 SLP101 P0021 T02340215 $ =
2018-08-18 14:51 METAR KMUI 181851Z AUTO 27003KT 4SM -RA BR SCT017 SCT047 BKN200 23/21 A2983 RMK
                 AO2 RAB16 SLP101 $ =
2018-08-18 14:49 METAR KMUI 181849Z AUTO 00000KT 2 1/4SM -RA SCT017 SCT047 BKN200 23/21 A2983 RMK
                 AO2 VIS 1V2 3/4 RAB16 SLP101 $ =
2018-08-18 14:45 METAR KMUI 181845Z AUTO 22005G20KT 1SM +RA BKN018 BKN047 23/21 A2983 RMK AO2 VIS
                 1V7 RAB16 SLP101 RVRNO $ =
2018-08-18 14:43 METAR KMUI 181843Z AUTO 23006G20KT 1 1/2SM +RA BKN018 24/21 A2983 RMK AO2 VIS 1
                 1/2V8 RAB16 SLP101 $ =
2018-08-18 14:41 METAR KMUI 181841Z AUTO 23014G20KT 2 1/4SM +RA BR SCT020 24/22 A2984 RMK AO2
                 WSHFT 33 VIS 2 1/4V9 RAB16 SLP104 $ =
2018-08-18 14:40 METAR KMUI 181840Z AUTO 24016G20KT 2 3/4SM +RA BR SCT020 24/22 A2984 RMK AO2 VIS
                 2 1/4V9 VIS 2 1/4 RWY07 RAB16 SLP104 $ =
2018-08-18 14:16 METAR KMUI 181816Z AUTO 23008KT 10SM -RA FEW034 FEW047 SCT060 SCT075 27/21 A2983
                 RMK AO2 RAB16 SLP100 $ =
2018-08-18 13:56 METAR KMUI 181756Z AUTO 22006KT 10SM FEW034 FEW200 28/21 A2984 RMK AO2 SLP104
                 T02830211 10288 20224 57016 $ =
2018-08-18 12:56 METAR KMUI 181656Z AUTO 28006KT 10SM FEW026 SCT040 SCT150 28/21 A2986 RMK AO2
                 SLP111 T02770212 $ =
2018-08-18 11:56 METAR KMUI 181556Z AUTO 23007KT 10SM FEW018 27/23 A2988 RMK AO2 SLP118 T02660232
                 $ =
2018-08-18 10:56 METAR KMUI 181456Z AUTO 23009KT 10SM SCT019 25/24 A2989 RMK AO2 SLP121 T02540236
                 57007 $ =
2018-08-18 09:56 METAR KMUI 181356Z AUTO 23008KT 10SM FEW007 SCT190 24/23 A2989 RMK AO2 SLP121
                 T02380233 $ =
2018-08-18 09:18 METAR KMUI 181318Z AUTO 23006KT 10SM SCT006 23/23 A2990 RMK AO2 SLP125 $ =
2018-08-18 09:06 METAR KMUI 181306Z AUTO 23006KT 10SM BKN006 23/22 A2990 RMK AO2 SLP125 $ =
2018-08-18 08:56 METAR KMUI 181256Z AUTO 23005KT 10SM BKN005 23/22 A2991 RMK AO2 SLP128 T02290224
                 $ =
2018-08-18 08:48 METAR KMUI 181248Z AUTO 23004KT 10SM BKN005 23/22 A2990 RMK AO2 BKN V SCT SLP125
                 $ =
2018-08-18 08:44 METAR KMUI 181244Z AUTO 22005KT 10SM SCT005 23/22 A2990 RMK AO2 SLP125 $ =
2018-08-18 07:56 METAR KMUI 181156Z AUTO 23004KT 9SM OVC004 22/22 A2991 RMK AO2 SLP129 70037
                 T02230219 10223 20218 55001 $ =
2018-08-18 06:56 METAR KMUI 181056Z AUTO 24003KT 7SM OVC004 22/22 A2991 RMK AO2 SLP129 T02220218
                 $ =
2018-08-18 05:56 METAR KMUI 180956Z AUTO 00000KT 9SM OVC004 22/22 A2991 RMK AO2 SLP128 T02200216
                 $ =
2018-08-18 05:09 METAR KMUI 180909Z AUTO 00000KT 10SM BKN004 22/22 A2991 RMK AO2 CIG 004V130 BKN
                 V FEW SLP128 $ =
2018-08-18 04:57 METAR KMUI 180857Z AUTO 00000KT 10SM FEW004 SCT120 22/22 A2991 RMK AO2 SLP127 $
                 =
2018-08-18 04:56 METAR KMUI 180856Z AUTO 00000KT 10SM FEW120 22/22 A2991 RMK AO2 SLP127 T02210217
                 57010 $ =
2018-08-18 03:56 METAR KMUI 180756Z AUTO 23003KT 6SM BR FEW003 SCT130 22/22 A2993 RMK AO2 SLP134
                 T02200216 $ =
2018-08-18 03:38 METAR KMUI 180738Z AUTO 21004KT 7SM SCT003 22/22 A2993 RMK AO2 SLP134 $ =
2018-08-18 03:02 METAR KMUI 180702Z AUTO 00000KT 3SM BR OVC002 22/22 A2993 RMK AO2 SLP134 $ =
2018-08-18 03:00 METAR KMUI 180700Z AUTO 00000KT 2 1/2SM BR OVC002 22/22 A2993 RMK AO2 VIS 1V2
                 1/2 SLP134 $ =
2018-08-18 02:58 METAR KMUI 180658Z AUTO 00000KT 1 3/4SM BR OVC002 22/22 A2993 RMK AO2 VIS 1V1
                 3/4 SLP134 $ =
2018-08-18 02:56 METAR KMUI 180656Z AUTO 00000KT 1 1/8SM BR OVC002 22/22 A2993 RMK AO2 SLP134
                 T02210217 $ =
2018-08-18 02:54 METAR KMUI 180654Z AUTO 00000KT 1 1/8SM BR OVC002 22/22 A2993 RMK AO2 SLP134 $ =
2018-08-18 02:52 METAR KMUI 180652Z AUTO 00000KT 1SM BR VV002 22/22 A2993 RMK AO2 VIS 1V1 7/8
                 SLP134 RVRNO $ =
2018-08-18 02:46 METAR KMUI 180646Z AUTO 00000KT 1 1/4SM BR OVC002 22/22 A2993 RMK AO2 VIS 1
                 1/4V3 SLP134 $ =
2018-08-18 02:44 METAR KMUI 180644Z AUTO 00000KT 1 1/2SM BR OVC002 22/22 A2993 RMK AO2 VIS 1
                 1/2V4 SLP134 $ =
2018-08-18 02:40 METAR KMUI 180640Z AUTO 00000KT 2 1/2SM BR OVC002 22/22 A2993 RMK AO2 VIS 2
                 1/2V4 SLP134 $ =
2018-08-18 02:32 METAR KMUI 180632Z AUTO 00000KT 3SM BR OVC003 22/22 A2993 RMK AO2 SLP134 $ =
2018-08-18 02:30 METAR KMUI 180630Z AUTO 00000KT 2 1/2SM BR OVC003 22/22 A2994 RMK AO2 VIS 7/8V2
                 1/2 SLP138 $ =
2018-08-18 02:28 METAR KMUI 180628Z AUTO 00000KT 1 7/8SM BR OVC003 22/22 A2993 RMK AO2 VIS 7/8V1
                 7/8 SLP134 $ =
2018-08-18 02:26 METAR KMUI 180626Z AUTO 00000KT 1 3/8SM BR OVC003 22/22 A2994 RMK AO2 VIS 7/8V1
                 3/4 SLP138 $ =
2018-08-18 02:24 METAR KMUI 180624Z AUTO 00000KT 1SM BR VV003 22/22 A2994 RMK AO2 VIS 7/8V2 1/4
                 SLP138 RVRNO $ =
2018-08-18 02:22 METAR KMUI 180622Z AUTO 00000KT 7/8SM BR VV003 22/22 A2993 RMK AO2 VIS 7/8V2 1/2
                 SLP134 RVRNO $ =
2018-08-18 02:20 METAR KMUI 180620Z AUTO 00000KT 1 1/4SM BR OVC003 22/22 A2994 RMK AO2 VIS 1
                 1/4V3 SLP138 $ =
2018-08-18 02:18 METAR KMUI 180618Z AUTO 00000KT 1 5/8SM BR OVC003 22/22 A2994 RMK AO2 VIS 1
                 5/8V3 SLP138 $ =
2018-08-18 02:14 METAR KMUI 180614Z AUTO 00000KT 2 1/2SM BR OVC003 22/22 A2994 RMK AO2 VIS 2
                 1/2V4 CIG 003V005 SLP138 $ =
2018-08-18 02:12 METAR KMUI 180612Z AUTO 00000KT 2 3/4SM BR OVC003 22/22 A2994 RMK AO2 VIS 2
                 3/4V5 CIG 003V005 SLP138 $ =
2018-08-18 02:06 METAR KMUI 180606Z AUTO 00000KT 4SM BR OVC003 22/22 A2994 RMK AO2 CIG 003V005
                 SLP138 $ =
2018-08-18 01:56 METAR KMUI 180556Z AUTO 00000KT 5SM BR OVC005 22/22 A2994 RMK AO2 SLP138 60001
                 T02200216 10226 20218 57005 $ =
2018-08-18 01:52 METAR KMUI 180552Z AUTO 00000KT 5SM BR OVC005 22/22 A2994 RMK AO2 SLP138 $ =
2018-08-18 01:26 METAR KMUI 180526Z AUTO 00000KT 7SM BKN004 22/22 A2995 RMK AO2 BKN V SCT SLP141
                 $ =
2018-08-18 01:00 METAR KMUI 180500Z AUTO 00000KT 6SM BR SCT005 22/22 A2995 RMK AO2 SLP141 $ =
2018-08-18 00:56 METAR KMUI 180456Z AUTO 00000KT 6SM BR BKN005 22/22 A2995 RMK AO2 SLP141
                 T02190215 403170209 $ =
2018-08-18 00:50 METAR KMUI 180450Z AUTO 00000KT 5SM BR BKN005 22/22 A2995 RMK AO2 SLP141 $ =
2018-08-18 00:26 METAR KMUI 180426Z AUTO 00000KT 8SM BKN006 22/22 A2995 RMK AO2 SLP141 $ =
2018-08-18 00:14 METAR KMUI 180414Z AUTO 00000KT 9SM BKN005 22/22 A2995 RMK AO2 BKN V FEW SLP141
                 $ =
2018-08-18 00:04 METAR KMUI 180404Z AUTO 00000KT 7SM FEW005 22/22 A2995 RMK AO2 SLP141 $ =
2018-08-17 23:56 METAR KMUI 180356Z AUTO 00000KT 8SM CLR 22/22 A2995 RMK AO2 SLP142 =
2018-08-17 22:56 METAR KMUI 180256Z AUTO 00000KT 10SM FEW160 FEW180 22/22 A2996 RMK AO2 SLP145
                 60001 T02190215 50001 $ =
2018-08-17 22:03 METAR KMUI 180203Z AUTO 00000KT 10SM FEW005 22/22 A2997 RMK AO2 SLP149 $ =
2018-08-17 21:56 METAR KMUI 180156Z 00000KT 5SM BR FEW010 SCT100 BKN140 22/22 A2997 RMK AO2A
                 SLP149 T02220217 $ =
2018-08-17 20:56 METAR KMUI 180056Z 00000KT 7SM FEW030 BKN100 BKN140 22/22 A2996 RMK AO2A
                 RAB31E55 SLP145 P0001 T02210216 $ =
2018-08-17 20:31 METAR KMUI 180031Z 00000KT 10SM -RA SCT030 BKN100 BKN140 22/22 A2995 RMK AO2A
                 RAB31 SLP142 $ =

Support USWX by starting your Amazon purchase here.